sensor_id;sensor_type;location;lat;lon;timestamp;temperature;humidity
16140;DHT22;8175;49.326;12.690;2023-06-22T00:00:43;15.90;99.90
16140;DHT22;8175;49.326;12.690;2023-06-22T00:03:09;15.90;99.90
16140;DHT22;8175;49.326;12.690;2023-06-22T00:05:34;15.70;99.90
16140;DHT22;8175;49.326;12.690;2023-06-22T00:08:04;15.70;99.90
16140;DHT22;8175;49.326;12.690;2023-06-22T00:10:32;15.70;99.90
16140;DHT22;8175;49.326;12.690;2023-06-22T00:12:58;15.90;99.90
16140;DHT22;8175;49.326;12.690;2023-06-22T00:15:24;15.80;99.90
16140;DHT22;8175;49.326;12.690;2023-06-22T00:17:50;15.80;99.90
16140;DHT22;8175;49.326;12.690;2023-06-22T00:20:16;15.70;99.90
16140;DHT22;8175;49.326;12.690;2023-06-22T00:22:44;15.80;99.90
16140;DHT22;8175;49.326;12.690;2023-06-22T00:25:10;15.90;99.90
16140;DHT22;8175;49.326;12.690;2023-06-22T00:27:36;15.80;99.90
16140;DHT22;8175;49.326;12.690;2023-06-22T00:30:02;15.70;99.90
16140;DHT22;8175;49.326;12.690;2023-06-22T00:32:28;15.70;99.90
16140;DHT22;8175;49.326;12.690;2023-06-22T00:34:54;15.70;99.90
16140;DHT22;8175;49.326;12.690;2023-06-22T00:37:19;15.70;99.90
16140;DHT22;8175;49.326;12.690;2023-06-22T00:39:51;15.60;99.90
16140;DHT22;8175;49.326;12.690;2023-06-22T00:42:17;15.60;99.90
16140;DHT22;8175;49.326;12.690;2023-06-22T00:44:43;15.50;99.90
16140;DHT22;8175;49.326;12.690;2023-06-22T00:47:13;15.60;99.90
16140;DHT22;8175;49.326;12.690;2023-06-22T00:49:41;15.60;99.90
16140;DHT22;8175;49.326;12.690;2023-06-22T00:52:07;15.60;99.90
16140;DHT22;8175;49.326;12.690;2023-06-22T00:54:37;15.70;99.90
16140;DHT22;8175;49.326;12.690;2023-06-22T00:57:03;15.90;99.90
16140;DHT22;8175;49.326;12.690;2023-06-22T00:59:29;15.80;99.90
16140;DHT22;8175;49.326;12.690;2023-06-22T01:01:55;15.90;99.90
16140;DHT22;8175;49.326;12.690;2023-06-22T01:04:35;15.90;99.90
16140;DHT22;8175;49.326;12.690;2023-06-22T01:07:19;16.00;99.90
16140;DHT22;8175;49.326;12.690;2023-06-22T01:09:59;16.00;99.90
16140;DHT22;8175;49.326;12.690;2023-06-22T01:12:32;16.10;99.90
16140;DHT22;8175;49.326;12.690;2023-06-22T01:15:07;16.00;99.90
16140;DHT22;8175;49.326;12.690;2023-06-22T01:17:35;16.00;99.90
16140;DHT22;8175;49.326;12.690;2023-06-22T01:20:02;15.80;99.90
16140;DHT22;8175;49.326;12.690;2023-06-22T01:22:35;15.80;99.90
16140;DHT22;8175;49.326;12.690;2023-06-22T01:25:19;15.80;99.90
16140;DHT22;8175;49.326;12.690;2023-06-22T01:30:27;15.80;99.90
16140;DHT22;8175;49.326;12.690;2023-06-22T01:32:57;15.80;99.90
16140;DHT22;8175;49.326;12.690;2023-06-22T01:35:24;15.90;99.90
16140;DHT22;8175;49.326;12.690;2023-06-22T01:37:50;16.10;99.90
16140;DHT22;8175;49.326;12.690;2023-06-22T01:40:16;15.90;99.90
16140;DHT22;8175;49.326;12.690;2023-06-22T01:42:44;15.80;99.90
16140;DHT22;8175;49.326;12.690;2023-06-22T01:45:11;15.80;99.90
16140;DHT22;8175;49.326;12.690;2023-06-22T01:47:38;15.90;99.90
16140;DHT22;8175;49.326;12.690;2023-06-22T01:50:05;16.00;99.90
16140;DHT22;8175;49.326;12.690;2023-06-22T01:52:30;16.10;99.90
16140;DHT22;8175;49.326;12.690;2023-06-22T01:54:59;16.00;99.90
16140;DHT22;8175;49.326;12.690;2023-06-22T01:57:26;15.90;99.90
16140;DHT22;8175;49.326;12.690;2023-06-22T02:02:24;15.60;99.90
16140;DHT22;8175;49.326;12.690;2023-06-22T02:05:09;15.50;99.90
16140;DHT22;8175;49.326;12.690;2023-06-22T02:07:55;15.40;99.90
16140;DHT22;8175;49.326;12.690;2023-06-22T02:10:23;15.40;99.90
16140;DHT22;8175;49.326;12.690;2023-06-22T02:12:50;15.30;99.90
16140;DHT22;8175;49.326;12.690;2023-06-22T02:15:17;15.20;99.90
16140;DHT22;8175;49.326;12.690;2023-06-22T02:17:42;15.10;99.90
16140;DHT22;8175;49.326;12.690;2023-06-22T02:20:14;15.10;99.90
16140;DHT22;8175;49.326;12.690;2023-06-22T02:22:40;15.00;99.90
16140;DHT22;8175;49.326;12.690;2023-06-22T02:25:06;15.00;99.90
16140;DHT22;8175;49.326;12.690;2023-06-22T02:27:32;15.40;99.90
16140;DHT22;8175;49.326;12.690;2023-06-22T02:29:58;15.70;99.90
16140;DHT22;8175;49.326;12.690;2023-06-22T02:32:23;15.80;99.90
16140;DHT22;8175;49.326;12.690;2023-06-22T02:34:49;15.60;99.90
16140;DHT22;8175;49.326;12.690;2023-06-22T02:37:15;15.40;99.90
16140;DHT22;8175;49.326;12.690;2023-06-22T02:39:41;15.40;99.90
16140;DHT22;8175;49.326;12.690;2023-06-22T02:42:07;15.50;99.90
16140;DHT22;8175;49.326;12.690;2023-06-22T02:44:32;15.60;99.90
16140;DHT22;8175;49.326;12.690;2023-06-22T02:46:58;15.80;99.90
16140;DHT22;8175;49.326;12.690;2023-06-22T02:49:24;15.80;99.90
16140;DHT22;8175;49.326;12.690;2023-06-22T02:51:49;15.70;99.90
16140;DHT22;8175;49.326;12.690;2023-06-22T02:54:15;15.50;99.90
16140;DHT22;8175;49.326;12.690;2023-06-22T02:56:42;15.50;99.90
16140;DHT22;8175;49.326;12.690;2023-06-22T02:59:09;15.50;99.90
16140;DHT22;8175;49.326;12.690;2023-06-22T03:01:36;15.70;99.90
16140;DHT22;8175;49.326;12.690;2023-06-22T03:04:08;15.60;99.90
16140;DHT22;8175;49.326;12.690;2023-06-22T03:06:35;15.40;99.90
16140;DHT22;8175;49.326;12.690;2023-06-22T03:09:03;15.30;99.90
16140;DHT22;8175;49.326;12.690;2023-06-22T03:11:34;15.30;99.90
16140;DHT22;8175;49.326;12.690;2023-06-22T03:14:00;15.20;99.90
16140;DHT22;8175;49.326;12.690;2023-06-22T03:16:26;15.10;99.90
16140;DHT22;8175;49.326;12.690;2023-06-22T03:18:52;15.00;99.90
16140;DHT22;8175;49.326;12.690;2023-06-22T03:21:22;15.00;99.90
16140;DHT22;8175;49.326;12.690;2023-06-22T03:23:48;15.00;99.90
16140;DHT22;8175;49.326;12.690;2023-06-22T03:26:17;15.50;99.90
16140;DHT22;8175;49.326;12.690;2023-06-22T03:28:43;15.80;99.90
16140;DHT22;8175;49.326;12.690;2023-06-22T03:31:08;15.90;99.90
16140;DHT22;8175;49.326;12.690;2023-06-22T03:33:34;15.90;99.90
16140;DHT22;8175;49.326;12.690;2023-06-22T03:36:00;15.90;99.90
16140;DHT22;8175;49.326;12.690;2023-06-22T03:38:25;15.60;99.90
16140;DHT22;8175;49.326;12.690;2023-06-22T03:40:51;15.30;99.90
16140;DHT22;8175;49.326;12.690;2023-06-22T03:43:16;15.20;99.90
16140;DHT22;8175;49.326;12.690;2023-06-22T03:45:42;15.10;99.90
16140;DHT22;8175;49.326;12.690;2023-06-22T03:48:11;15.10;99.90
16140;DHT22;8175;49.326;12.690;2023-06-22T03:50:36;15.10;99.90
16140;DHT22;8175;49.326;12.690;2023-06-22T03:53:02;15.10;99.90
16140;DHT22;8175;49.326;12.690;2023-06-22T03:55:27;15.10;99.90
16140;DHT22;8175;49.326;12.690;2023-06-22T03:57:54;15.20;99.90
16140;DHT22;8175;49.326;12.690;2023-06-22T04:00:23;15.20;99.90
16140;DHT22;8175;49.326;12.690;2023-06-22T04:02:48;15.20;99.90
16140;DHT22;8175;49.326;12.690;2023-06-22T04:05:15;15.20;99.90
16140;DHT22;8175;49.326;12.690;2023-06-22T04:07:42;15.30;99.90
16140;DHT22;8175;49.326;12.690;2023-06-22T04:10:08;15.30;99.90
16140;DHT22;8175;49.326;12.690;2023-06-22T04:12:34;15.40;99.90
16140;DHT22;8175;49.326;12.690;2023-06-22T04:14:59;15.40;99.90
16140;DHT22;8175;49.326;12.690;2023-06-22T04:17:25;15.50;99.90
16140;DHT22;8175;49.326;12.690;2023-06-22T04:19:51;15.50;99.90
16140;DHT22;8175;49.326;12.690;2023-06-22T04:22:17;15.50;99.90
16140;DHT22;8175;49.326;12.690;2023-06-22T04:24:43;15.50;99.90
16140;DHT22;8175;49.326;12.690;2023-06-22T04:27:09;15.50;99.90
16140;DHT22;8175;49.326;12.690;2023-06-22T04:29:35;15.60;99.90
16140;DHT22;8175;49.326;12.690;2023-06-22T04:32:01;15.60;99.90
16140;DHT22;8175;49.326;12.690;2023-06-22T04:34:31;15.60;99.90
16140;DHT22;8175;49.326;12.690;2023-06-22T04:36:57;15.70;99.90
16140;DHT22;8175;49.326;12.690;2023-06-22T04:39:23;15.70;99.90
16140;DHT22;8175;49.326;12.690;2023-06-22T04:41:49;15.90;99.90
16140;DHT22;8175;49.326;12.690;2023-06-22T04:44:19;15.90;99.90
16140;DHT22;8175;49.326;12.690;2023-06-22T04:46:51;15.90;99.90
16140;DHT22;8175;49.326;12.690;2023-06-22T04:49:20;16.00;99.90
16140;DHT22;8175;49.326;12.690;2023-06-22T04:51:47;16.00;99.90
16140;DHT22;8175;49.326;12.690;2023-06-22T04:54:13;16.10;99.90
16140;DHT22;8175;49.326;12.690;2023-06-22T04:56:38;16.10;99.90
16140;DHT22;8175;49.326;12.690;2023-06-22T04:59:06;16.20;99.90
16140;DHT22;8175;49.326;12.690;2023-06-22T05:01:32;16.20;99.90
16140;DHT22;8175;49.326;12.690;2023-06-22T05:03:58;16.30;99.90
16140;DHT22;8175;49.326;12.690;2023-06-22T05:06:26;16.50;99.90
16140;DHT22;8175;49.326;12.690;2023-06-22T05:08:56;16.60;99.90
16140;DHT22;8175;49.326;12.690;2023-06-22T05:11:25;16.70;99.90
16140;DHT22;8175;49.326;12.690;2023-06-22T05:13:51;16.80;99.90
16140;DHT22;8175;49.326;12.690;2023-06-22T05:16:17;16.90;99.90
16140;DHT22;8175;49.326;12.690;2023-06-22T05:18:43;17.00;99.90
16140;DHT22;8175;49.326;12.690;2023-06-22T05:21:09;17.10;99.90
16140;DHT22;8175;49.326;12.690;2023-06-22T05:23:34;17.20;99.90
16140;DHT22;8175;49.326;12.690;2023-06-22T05:26:00;17.30;99.90
16140;DHT22;8175;49.326;12.690;2023-06-22T05:28:26;17.30;99.90
16140;DHT22;8175;49.326;12.690;2023-06-22T05:30:51;17.30;99.90
16140;DHT22;8175;49.326;12.690;2023-06-22T05:33:17;17.30;99.90
16140;DHT22;8175;49.326;12.690;2023-06-22T05:35:43;17.30;99.90
16140;DHT22;8175;49.326;12.690;2023-06-22T05:38:08;17.40;99.90
16140;DHT22;8175;49.326;12.690;2023-06-22T05:40:34;17.40;99.90
16140;DHT22;8175;49.326;12.690;2023-06-22T05:43:00;17.50;99.90
16140;DHT22;8175;49.326;12.690;2023-06-22T05:45:27;17.50;99.90
16140;DHT22;8175;49.326;12.690;2023-06-22T05:47:52;17.60;99.90
16140;DHT22;8175;49.326;12.690;2023-06-22T05:50:18;17.60;99.90
16140;DHT22;8175;49.326;12.690;2023-06-22T05:52:44;17.80;99.90
16140;DHT22;8175;49.326;12.690;2023-06-22T05:55:09;17.80;99.90
16140;DHT22;8175;49.326;12.690;2023-06-22T05:57:35;17.90;99.90
16140;DHT22;8175;49.326;12.690;2023-06-22T06:00:01;17.90;99.90
16140;DHT22;8175;49.326;12.690;2023-06-22T06:02:26;18.00;99.90
16140;DHT22;8175;49.326;12.690;2023-06-22T06:04:52;18.00;99.90
16140;DHT22;8175;49.326;12.690;2023-06-22T06:07:18;18.00;99.90
16140;DHT22;8175;49.326;12.690;2023-06-22T06:09:44;18.10;99.90
16140;DHT22;8175;49.326;12.690;2023-06-22T06:12:09;18.40;99.90
16140;DHT22;8175;49.326;12.690;2023-06-22T06:14:35;18.50;99.90
16140;DHT22;8175;49.326;12.690;2023-06-22T06:17:00;18.60;99.90
16140;DHT22;8175;49.326;12.690;2023-06-22T06:19:26;18.70;99.90
16140;DHT22;8175;49.326;12.690;2023-06-22T06:21:52;18.80;99.90
16140;DHT22;8175;49.326;12.690;2023-06-22T06:24:17;19.00;99.90
16140;DHT22;8175;49.326;12.690;2023-06-22T06:26:43;19.10;99.90
16140;DHT22;8175;49.326;12.690;2023-06-22T06:29:08;19.30;99.90
16140;DHT22;8175;49.326;12.690;2023-06-22T06:31:34;19.50;99.90
16140;DHT22;8175;49.326;12.690;2023-06-22T06:34:00;19.50;99.90
16140;DHT22;8175;49.326;12.690;2023-06-22T06:36:26;19.60;99.90
16140;DHT22;8175;49.326;12.690;2023-06-22T06:38:51;19.80;99.90
16140;DHT22;8175;49.326;12.690;2023-06-22T06:41:17;20.00;99.90
16140;DHT22;8175;49.326;12.690;2023-06-22T06:43:43;20.20;99.90
16140;DHT22;8175;49.326;12.690;2023-06-22T06:46:09;20.50;99.90
16140;DHT22;8175;49.326;12.690;2023-06-22T06:48:35;20.70;99.90
16140;DHT22;8175;49.326;12.690;2023-06-22T06:51:01;21.00;99.90
16140;DHT22;8175;49.326;12.690;2023-06-22T06:53:26;21.40;99.90
16140;DHT22;8175;49.326;12.690;2023-06-22T06:55:53;21.70;99.90
16140;DHT22;8175;49.326;12.690;2023-06-22T06:58:19;21.80;99.90
16140;DHT22;8175;49.326;12.690;2023-06-22T07:00:45;21.90;99.90
16140;DHT22;8175;49.326;12.690;2023-06-22T07:03:10;22.30;99.90
16140;DHT22;8175;49.326;12.690;2023-06-22T07:05:36;22.70;99.90
16140;DHT22;8175;49.326;12.690;2023-06-22T07:08:02;23.00;99.90
16140;DHT22;8175;49.326;12.690;2023-06-22T07:10:29;23.20;99.90
16140;DHT22;8175;49.326;12.690;2023-06-22T07:12:54;23.40;99.90
16140;DHT22;8175;49.326;12.690;2023-06-22T07:15:20;23.50;99.90
16140;DHT22;8175;49.326;12.690;2023-06-22T07:17:46;23.80;99.90
16140;DHT22;8175;49.326;12.690;2023-06-22T07:20:12;24.10;99.90
16140;DHT22;8175;49.326;12.690;2023-06-22T07:22:44;24.00;99.90
16140;DHT22;8175;49.326;12.690;2023-06-22T07:25:12;24.00;99.90
16140;DHT22;8175;49.326;12.690;2023-06-22T07:27:57;24.60;99.90
16140;DHT22;8175;49.326;12.690;2023-06-22T07:30:23;25.50;99.90
16140;DHT22;8175;49.326;12.690;2023-06-22T07:32:49;25.70;99.90
16140;DHT22;8175;49.326;12.690;2023-06-22T07:35:14;26.40;99.90
16140;DHT22;8175;49.326;12.690;2023-06-22T07:37:42;26.70;99.90
16140;DHT22;8175;49.326;12.690;2023-06-22T07:40:08;28.00;99.90
16140;DHT22;8175;49.326;12.690;2023-06-22T07:42:34;29.10;99.90
16140;DHT22;8175;49.326;12.690;2023-06-22T07:45:00;29.80;99.90
16140;DHT22;8175;49.326;12.690;2023-06-22T07:47:27;30.40;99.90
16140;DHT22;8175;49.326;12.690;2023-06-22T07:49:54;29.90;99.90
16140;DHT22;8175;49.326;12.690;2023-06-22T07:52:21;30.30;99.90
16140;DHT22;8175;49.326;12.690;2023-06-22T07:54:47;31.30;99.90
16140;DHT22;8175;49.326;12.690;2023-06-22T07:57:12;32.20;99.50
16140;DHT22;8175;49.326;12.690;2023-06-22T07:59:38;31.60;98.40
16140;DHT22;8175;49.326;12.690;2023-06-22T08:02:04;30.80;97.30
16140;DHT22;8175;49.326;12.690;2023-06-22T08:04:30;32.00;93.40
16140;DHT22;8175;49.326;12.690;2023-06-22T08:07:00;32.60;94.20
16140;DHT22;8175;49.326;12.690;2023-06-22T08:09:31;32.60;90.40
16140;DHT22;8175;49.326;12.690;2023-06-22T08:11:57;32.20;93.60
16140;DHT22;8175;49.326;12.690;2023-06-22T08:14:26;32.30;90.30
16140;DHT22;8175;49.326;12.690;2023-06-22T08:16:52;32.00;87.40
16140;DHT22;8175;49.326;12.690;2023-06-22T08:19:18;32.20;86.40
16140;DHT22;8175;49.326;12.690;2023-06-22T08:21:44;32.80;86.20
16140;DHT22;8175;49.326;12.690;2023-06-22T08:24:09;33.30;82.40
16140;DHT22;8175;49.326;12.690;2023-06-22T08:26:35;33.30;80.30
16140;DHT22;8175;49.326;12.690;2023-06-22T08:29:03;32.60;81.80
16140;DHT22;8175;49.326;12.690;2023-06-22T08:31:29;32.70;81.40
16140;DHT22;8175;49.326;12.690;2023-06-22T08:33:55;32.60;89.90
16140;DHT22;8175;49.326;12.690;2023-06-22T08:36:21;33.50;88.00
16140;DHT22;8175;49.326;12.690;2023-06-22T08:38:47;33.90;87.90
16140;DHT22;8175;49.326;12.690;2023-06-22T08:41:16;32.50;83.60
16140;DHT22;8175;49.326;12.690;2023-06-22T08:43:43;32.50;84.20
16140;DHT22;8175;49.326;12.690;2023-06-22T08:46:10;34.20;80.00
16140;DHT22;8175;49.326;12.690;2023-06-22T08:48:36;35.40;74.40
16140;DHT22;8175;49.326;12.690;2023-06-22T08:51:02;34.80;67.60
16140;DHT22;8175;49.326;12.690;2023-06-22T08:53:28;35.80;68.60
16140;DHT22;8175;49.326;12.690;2023-06-22T08:55:54;36.30;63.00
16140;DHT22;8175;49.326;12.690;2023-06-22T08:58:20;36.30;63.90
16140;DHT22;8175;49.326;12.690;2023-06-22T09:00:47;36.40;63.80
16140;DHT22;8175;49.326;12.690;2023-06-22T09:03:13;35.60;64.30
16140;DHT22;8175;49.326;12.690;2023-06-22T09:05:38;35.70;65.90
16140;DHT22;8175;49.326;12.690;2023-06-22T09:08:04;35.60;61.40
16140;DHT22;8175;49.326;12.690;2023-06-22T09:10:30;35.60;61.90
16140;DHT22;8175;49.326;12.690;2023-06-22T09:12:57;35.40;59.70
16140;DHT22;8175;49.326;12.690;2023-06-22T09:15:22;35.90;69.10
16140;DHT22;8175;49.326;12.690;2023-06-22T09:17:48;35.20;62.10
16140;DHT22;8175;49.326;12.690;2023-06-22T09:20:14;35.90;62.20
16140;DHT22;8175;49.326;12.690;2023-06-22T09:22:40;36.10;61.90
16140;DHT22;8175;49.326;12.690;2023-06-22T09:25:06;36.70;62.80
16140;DHT22;8175;49.326;12.690;2023-06-22T09:27:32;35.20;64.90
16140;DHT22;8175;49.326;12.690;2023-06-22T09:29:58;34.90;66.80
16140;DHT22;8175;49.326;12.690;2023-06-22T09:32:24;35.70;60.40
16140;DHT22;8175;49.326;12.690;2023-06-22T09:34:51;36.70;58.80
16140;DHT22;8175;49.326;12.690;2023-06-22T09:37:16;37.10;55.80
16140;DHT22;8175;49.326;12.690;2023-06-22T09:39:42;37.10;58.10
16140;DHT22;8175;49.326;12.690;2023-06-22T09:42:08;37.30;54.00
16140;DHT22;8175;49.326;12.690;2023-06-22T09:44:34;37.20;54.10
16140;DHT22;8175;49.326;12.690;2023-06-22T09:47:00;36.70;54.20
16140;DHT22;8175;49.326;12.690;2023-06-22T09:49:25;35.90;54.00
16140;DHT22;8175;49.326;12.690;2023-06-22T09:51:51;35.10;61.50
16140;DHT22;8175;49.326;12.690;2023-06-22T09:54:18;35.10;58.10
16140;DHT22;8175;49.326;12.690;2023-06-22T09:56:43;35.70;60.30
16140;DHT22;8175;49.326;12.690;2023-06-22T09:59:09;36.10;65.20
16140;DHT22;8175;49.326;12.690;2023-06-22T10:01:35;36.10;61.60
16140;DHT22;8175;49.326;12.690;2023-06-22T10:04:02;36.40;57.30
16140;DHT22;8175;49.326;12.690;2023-06-22T10:06:28;36.00;57.70
16140;DHT22;8175;49.326;12.690;2023-06-22T10:08:53;36.60;56.60
16140;DHT22;8175;49.326;12.690;2023-06-22T10:11:19;36.60;56.70
16140;DHT22;8175;49.326;12.690;2023-06-22T10:13:45;36.70;54.20
16140;DHT22;8175;49.326;12.690;2023-06-22T10:16:10;36.60;56.80
16140;DHT22;8175;49.326;12.690;2023-06-22T10:18:36;36.10;57.60
16140;DHT22;8175;49.326;12.690;2023-06-22T10:21:02;36.00;55.80
16140;DHT22;8175;49.326;12.690;2023-06-22T10:23:27;36.40;55.60
16140;DHT22;8175;49.326;12.690;2023-06-22T10:25:53;36.70;56.00
16140;DHT22;8175;49.326;12.690;2023-06-22T10:28:19;36.40;56.20
16140;DHT22;8175;49.326;12.690;2023-06-22T10:30:44;36.20;58.30
16140;DHT22;8175;49.326;12.690;2023-06-22T10:33:11;36.70;57.70
16140;DHT22;8175;49.326;12.690;2023-06-22T10:35:37;37.10;56.40
16140;DHT22;8175;49.326;12.690;2023-06-22T10:38:03;36.70;57.90
16140;DHT22;8175;49.326;12.690;2023-06-22T10:40:29;36.60;58.80
16140;DHT22;8175;49.326;12.690;2023-06-22T10:42:54;36.00;58.00
16140;DHT22;8175;49.326;12.690;2023-06-22T10:45:20;36.60;58.60
16140;DHT22;8175;49.326;12.690;2023-06-22T10:47:46;37.50;55.30
16140;DHT22;8175;49.326;12.690;2023-06-22T10:50:12;38.10;54.70
16140;DHT22;8175;49.326;12.690;2023-06-22T10:52:38;38.30;54.50
16140;DHT22;8175;49.326;12.690;2023-06-22T10:55:04;37.70;54.50
16140;DHT22;8175;49.326;12.690;2023-06-22T10:57:30;36.30;54.30
16140;DHT22;8175;49.326;12.690;2023-06-22T10:59:55;37.10;55.40
16140;DHT22;8175;49.326;12.690;2023-06-22T11:02:21;37.60;54.40
16140;DHT22;8175;49.326;12.690;2023-06-22T11:04:46;38.10;54.30
16140;DHT22;8175;49.326;12.690;2023-06-22T11:07:13;38.80;51.20
16140;DHT22;8175;49.326;12.690;2023-06-22T11:09:38;38.70;54.10
16140;DHT22;8175;49.326;12.690;2023-06-22T11:12:05;38.50;53.30
16140;DHT22;8175;49.326;12.690;2023-06-22T11:14:31;37.30;53.60
16140;DHT22;8175;49.326;12.690;2023-06-22T11:16:59;37.60;56.30
16140;DHT22;8175;49.326;12.690;2023-06-22T11:19:24;36.30;57.50
16140;DHT22;8175;49.326;12.690;2023-06-22T11:21:50;36.50;57.30
16140;DHT22;8175;49.326;12.690;2023-06-22T11:24:16;37.00;55.90
16140;DHT22;8175;49.326;12.690;2023-06-22T11:26:42;36.80;55.20
16140;DHT22;8175;49.326;12.690;2023-06-22T11:29:08;38.00;55.90
16140;DHT22;8175;49.326;12.690;2023-06-22T11:31:34;37.30;56.50
16140;DHT22;8175;49.326;12.690;2023-06-22T11:34:01;38.10;53.00
16140;DHT22;8175;49.326;12.690;2023-06-22T11:36:27;38.20;53.50
16140;DHT22;8175;49.326;12.690;2023-06-22T11:38:52;38.40;53.60
16140;DHT22;8175;49.326;12.690;2023-06-22T11:41:18;39.00;51.90
16140;DHT22;8175;49.326;12.690;2023-06-22T11:43:44;39.40;51.10
16140;DHT22;8175;49.326;12.690;2023-06-22T11:46:10;39.40;50.20
16140;DHT22;8175;49.326;12.690;2023-06-22T11:48:36;38.70;50.00
16140;DHT22;8175;49.326;12.690;2023-06-22T11:51:02;38.70;52.70
16140;DHT22;8175;49.326;12.690;2023-06-22T11:53:28;39.10;50.40
16140;DHT22;8175;49.326;12.690;2023-06-22T11:55:54;39.00;51.00
16140;DHT22;8175;49.326;12.690;2023-06-22T11:58:20;38.70;51.70
16140;DHT22;8175;49.326;12.690;2023-06-22T12:00:46;37.60;55.00
16140;DHT22;8175;49.326;12.690;2023-06-22T12:03:11;37.60;55.40
16140;DHT22;8175;49.326;12.690;2023-06-22T12:05:38;37.00;55.60
16140;DHT22;8175;49.326;12.690;2023-06-22T12:08:04;37.20;55.40
16140;DHT22;8175;49.326;12.690;2023-06-22T12:10:30;37.30;52.60
16140;DHT22;8175;49.326;12.690;2023-06-22T12:12:56;37.70;55.30
16140;DHT22;8175;49.326;12.690;2023-06-22T12:15:23;37.60;55.20
16140;DHT22;8175;49.326;12.690;2023-06-22T12:17:49;37.50;55.60
16140;DHT22;8175;49.326;12.690;2023-06-22T12:20:15;37.60;54.60
16140;DHT22;8175;49.326;12.690;2023-06-22T12:22:41;37.90;53.40
16140;DHT22;8175;49.326;12.690;2023-06-22T12:25:08;37.90;55.00
16140;DHT22;8175;49.326;12.690;2023-06-22T12:27:35;37.60;56.10
16140;DHT22;8175;49.326;12.690;2023-06-22T12:30:01;37.30;53.90
16140;DHT22;8175;49.326;12.690;2023-06-22T12:32:27;37.50;56.50
16140;DHT22;8175;49.326;12.690;2023-06-22T12:34:52;37.60;53.00
16140;DHT22;8175;49.326;12.690;2023-06-22T12:37:18;37.70;54.90
16140;DHT22;8175;49.326;12.690;2023-06-22T12:39:44;37.60;54.60
16140;DHT22;8175;49.326;12.690;2023-06-22T12:42:10;37.60;53.00
16140;DHT22;8175;49.326;12.690;2023-06-22T12:44:38;37.50;54.30
16140;DHT22;8175;49.326;12.690;2023-06-22T12:47:04;38.20;52.70
16140;DHT22;8175;49.326;12.690;2023-06-22T12:49:29;38.30;53.60
16140;DHT22;8175;49.326;12.690;2023-06-22T12:51:55;38.00;55.20
16140;DHT22;8175;49.326;12.690;2023-06-22T12:54:21;37.80;54.60
16140;DHT22;8175;49.326;12.690;2023-06-22T12:56:46;38.10;54.50
16140;DHT22;8175;49.326;12.690;2023-06-22T12:59:12;38.50;54.10
16140;DHT22;8175;49.326;12.690;2023-06-22T13:01:38;38.60;51.40
16140;DHT22;8175;49.326;12.690;2023-06-22T13:04:04;37.60;53.30
16140;DHT22;8175;49.326;12.690;2023-06-22T13:06:30;37.10;54.20
16140;DHT22;8175;49.326;12.690;2023-06-22T13:08:56;37.50;58.70
16140;DHT22;8175;49.326;12.690;2023-06-22T13:11:21;37.30;54.50
16140;DHT22;8175;49.326;12.690;2023-06-22T13:13:47;37.40;56.90
16140;DHT22;8175;49.326;12.690;2023-06-22T13:16:13;37.60;55.90
16140;DHT22;8175;49.326;12.690;2023-06-22T13:18:38;37.50;55.70
16140;DHT22;8175;49.326;12.690;2023-06-22T13:21:04;37.60;55.20
16140;DHT22;8175;49.326;12.690;2023-06-22T13:23:30;37.00;54.90
16140;DHT22;8175;49.326;12.690;2023-06-22T13:25:57;37.70;54.90
16140;DHT22;8175;49.326;12.690;2023-06-22T13:28:23;38.60;55.40
16140;DHT22;8175;49.326;12.690;2023-06-22T13:30:48;39.10;54.10
16140;DHT22;8175;49.326;12.690;2023-06-22T13:33:14;39.30;53.70
16140;DHT22;8175;49.326;12.690;2023-06-22T13:35:40;39.10;50.10
16140;DHT22;8175;49.326;12.690;2023-06-22T13:38:11;39.50;49.30
16140;DHT22;8175;49.326;12.690;2023-06-22T13:40:37;39.30;51.30
16140;DHT22;8175;49.326;12.690;2023-06-22T13:43:06;38.90;54.60
16140;DHT22;8175;49.326;12.690;2023-06-22T13:45:32;39.40;50.90
16140;DHT22;8175;49.326;12.690;2023-06-22T13:47:58;38.80;54.90
16140;DHT22;8175;49.326;12.690;2023-06-22T13:50:24;39.10;53.60
16140;DHT22;8175;49.326;12.690;2023-06-22T13:52:49;39.50;52.40
16140;DHT22;8175;49.326;12.690;2023-06-22T13:55:15;39.50;51.40
16140;DHT22;8175;49.326;12.690;2023-06-22T13:57:41;39.60;48.70
16140;DHT22;8175;49.326;12.690;2023-06-22T14:00:07;39.10;51.10
16140;DHT22;8175;49.326;12.690;2023-06-22T14:02:34;38.70;51.10
16140;DHT22;8175;49.326;12.690;2023-06-22T14:05:00;38.60;53.50
16140;DHT22;8175;49.326;12.690;2023-06-22T14:07:25;38.40;54.20
16140;DHT22;8175;49.326;12.690;2023-06-22T14:09:51;37.60;55.00
16140;DHT22;8175;49.326;12.690;2023-06-22T14:12:16;38.00;54.00
16140;DHT22;8175;49.326;12.690;2023-06-22T14:14:45;38.40;53.40
16140;DHT22;8175;49.326;12.690;2023-06-22T14:17:11;38.90;54.20
16140;DHT22;8175;49.326;12.690;2023-06-22T14:19:36;38.60;53.60
16140;DHT22;8175;49.326;12.690;2023-06-22T14:22:03;36.60;54.60
16140;DHT22;8175;49.326;12.690;2023-06-22T14:24:29;36.00;58.30
16140;DHT22;8175;49.326;12.690;2023-06-22T14:26:55;35.00;57.40
16140;DHT22;8175;49.326;12.690;2023-06-22T14:29:21;36.00;58.00
16140;DHT22;8175;49.326;12.690;2023-06-22T14:31:48;36.00;57.60
16140;DHT22;8175;49.326;12.690;2023-06-22T14:34:14;34.70;58.00
16140;DHT22;8175;49.326;12.690;2023-06-22T14:36:40;34.20;61.50
16140;DHT22;8175;49.326;12.690;2023-06-22T14:39:05;33.70;62.00
16140;DHT22;8175;49.326;12.690;2023-06-22T14:41:31;33.80;67.00
16140;DHT22;8175;49.326;12.690;2023-06-22T14:43:57;33.90;64.00
16140;DHT22;8175;49.326;12.690;2023-06-22T14:46:22;34.00;64.60
16140;DHT22;8175;49.326;12.690;2023-06-22T14:48:48;34.50;67.50
16140;DHT22;8175;49.326;12.690;2023-06-22T14:51:14;35.00;64.90
16140;DHT22;8175;49.326;12.690;2023-06-22T14:53:42;35.30;63.90
16140;DHT22;8175;49.326;12.690;2023-06-22T14:56:07;35.80;60.30
16140;DHT22;8175;49.326;12.690;2023-06-22T14:58:33;35.40;65.30
16140;DHT22;8175;49.326;12.690;2023-06-22T15:01:00;36.40;60.40
16140;DHT22;8175;49.326;12.690;2023-06-22T15:03:26;36.30;61.30
16140;DHT22;8175;49.326;12.690;2023-06-22T15:05:54;37.10;59.70
16140;DHT22;8175;49.326;12.690;2023-06-22T15:08:20;36.40;58.90
16140;DHT22;8175;49.326;12.690;2023-06-22T15:10:46;36.70;59.50
16140;DHT22;8175;49.326;12.690;2023-06-22T15:13:12;36.60;59.80
16140;DHT22;8175;49.326;12.690;2023-06-22T15:15:38;37.20;58.30
16140;DHT22;8175;49.326;12.690;2023-06-22T15:18:03;36.30;56.90
16140;DHT22;8175;49.326;12.690;2023-06-22T15:20:29;35.10;61.30
16140;DHT22;8175;49.326;12.690;2023-06-22T15:22:56;34.40;65.40
16140;DHT22;8175;49.326;12.690;2023-06-22T15:25:22;34.20;67.30
16140;DHT22;8175;49.326;12.690;2023-06-22T15:27:47;34.10;68.90
16140;DHT22;8175;49.326;12.690;2023-06-22T15:30:13;34.00;69.60